Time,TemperatureF,DewpointF,PressureIn,WindDirection,WindDirectionDegrees,WindSpeedMPH,WindSpeedGustMPH,Humidity,HourlyPrecipIn,Conditions,Clouds,dailyrainin,SolarRadiationWatts/m^2,SoftwareType,DateUTC
2013-09-08 00:03:00,50.7,47.3,30.03,NW,313,0.0,0.0,88,0.00,,,0.00,0,WeatherCatV1.21B27,2013-09-07 23:03:00,
2013-09-08 00:08:00,50.6,47.2,30.03,NW,313,0.0,0.0,88,0.00,,,0.00,0,WeatherCatV1.21B27,2013-09-07 23:08:00,
2013-09-08 00:13:00,50.6,47.5,30.03,NW,313,0.0,1.0,89,0.00,,,0.00,0,WeatherCatV1.21B27,2013-09-07 23:13:00,
2013-09-08 00:18:00,50.5,47.4,30.03,NW,313,0.0,0.0,89,0.00,,,0.00,0,WeatherCatV1.21B27,2013-09-07 23:18:00,
2013-09-08 00:23:00,50.4,47.3,30.03,NW,313,0.0,0.0,89,0.00,,,0.00,0,WeatherCatV1.21B27,2013-09-07 23:23:00,
2013-09-08 00:28:00,50.3,47.2,30.03,NW,313,0.0,0.0,89,0.00,,,0.00,0,WeatherCatV1.21B27,2013-09-07 23:28:00,
2013-09-08 00:33:00,50.3,47.2,30.03,NW,313,0.0,0.0,89,0.00,,,0.00,0,WeatherCatV1.21B27,2013-09-07 23:33:00,
2013-09-08 00:38:00,50.3,47.2,30.03,NW,313,0.0,0.0,89,0.00,,,0.00,0,WeatherCatV1.21B27,2013-09-07 23:38:00,
2013-09-08 00:43:00,50.3,47.2,30.03,NW,313,0.0,0.0,89,0.00,,,0.00,0,WeatherCatV1.21B27,2013-09-07 23:43:00,
2013-09-08 00:48:00,50.1,47.3,30.03,NW,313,0.0,0.0,90,0.00,,,0.00,0,WeatherCatV1.21B27,2013-09-07 23:48:00,
2013-09-08 00:53:00,50.0,47.2,30.03,NW,313,0.0,0.0,90,0.00,,,0.00,0,WeatherCatV1.21B27,2013-09-07 23:53:00,
2013-09-08 00:58:00,49.9,47.1,30.03,NW,313,0.0,0.0,90,0.00,,,0.00,0,WeatherCatV1.21B27,2013-09-07 23:58:00,
2013-09-08 01:03:00,49.9,47.1,30.03,NW,313,0.0,0.0,90,0.00,,,0.00,0,WeatherCatV1.21B27,2013-09-08 00:03:00,
2013-09-08 01:08:00,49.9,47.4,30.03,NW,313,0.0,0.0,91,0.00,,,0.00,0,WeatherCatV1.21B27,2013-09-08 00:08:00,
2013-09-08 01:13:00,49.7,46.9,30.03,NW,313,0.0,0.0,90,0.00,,,0.00,0,WeatherCatV1.21B27,2013-09-08 00:13:00,
2013-09-08 01:18:00,49.5,47.0,30.03,NW,313,0.0,0.0,91,0.00,,,0.00,0,WeatherCatV1.21B27,2013-09-08 00:18:00,
2013-09-08 01:23:00,49.4,46.9,30.03,NW,313,0.0,0.0,91,0.00,,,0.00,0,WeatherCatV1.21B27,2013-09-08 00:23:00,
2013-09-08 01:28:00,49.3,46.8,30.03,NW,313,0.0,0.0,91,0.00,,,0.00,0,WeatherCatV1.21B27,2013-09-08 00:28:00,
2013-09-08 01:33:00,49.3,46.8,30.03,NW,313,0.0,1.0,91,0.00,,,0.00,0,WeatherCatV1.21B27,2013-09-08 00:33:00,
2013-09-08 01:38:00,49.2,46.7,30.03,NW,313,0.0,1.0,91,0.00,,,0.00,0,WeatherCatV1.21B27,2013-09-08 00:38:00,
2013-09-08 01:43:00,49.2,46.7,30.03,NW,313,0.0,0.0,91,0.00,,,0.00,0,WeatherCatV1.21B27,2013-09-08 00:43:00,
2013-09-08 01:48:00,49.1,46.6,30.03,NW,313,0.0,0.0,91,0.00,,,0.00,0,WeatherCatV1.21B27,2013-09-08 00:48:00,
2013-09-08 01:53:00,49.0,46.8,30.03,NW,313,0.0,0.0,92,0.00,,,0.00,0,WeatherCatV1.21B27,2013-09-08 00:53:00,
2013-09-08 01:58:00,49.0,46.8,30.03,NW,313,0.0,0.0,92,0.00,,,0.00,0,WeatherCatV1.21B27,2013-09-08 00:58:00,
2013-09-08 02:03:00,49.0,46.8,30.04,NW,313,0.0,0.0,92,0.00,,,0.00,0,WeatherCatV1.21B27,2013-09-08 01:03:00,
2013-09-08 02:08:00,49.0,46.8,30.04,NW,313,0.0,1.0,92,0.00,,,0.00,0,WeatherCatV1.21B27,2013-09-08 01:08:00,
2013-09-08 02:13:00,49.0,46.8,30.04,NW,313,0.0,0.0,92,0.00,,,0.00,0,WeatherCatV1.21B27,2013-09-08 01:13:00,
2013-09-08 02:18:00,49.0,46.8,30.04,NW,313,0.0,0.0,92,0.00,,,0.00,0,WeatherCatV1.21B27,2013-09-08 01:18:00,
2013-09-08 02:23:00,49.0,46.8,30.04,NW,313,0.0,0.0,92,0.00,,,0.00,0,WeatherCatV1.21B27,2013-09-08 01:23:00,
2013-09-08 02:28:00,49.0,46.8,30.04,NW,313,0.0,0.0,92,0.00,,,0.00,0,WeatherCatV1.21B27,2013-09-08 01:28:00,
2013-09-08 02:33:00,48.8,46.6,30.04,NW,313,0.0,0.0,92,0.00,,,0.00,0,WeatherCatV1.21B27,2013-09-08 01:33:00,
2013-09-08 02:38:00,48.8,46.6,30.04,NW,313,0.0,0.0,92,0.00,,,0.00,0,WeatherCatV1.21B27,2013-09-08 01:38:00,
2013-09-08 02:43:00,48.7,46.5,30.04,NW,313,0.0,0.0,92,0.00,,,0.00,0,WeatherCatV1.21B27,2013-09-08 01:43:00,
2013-09-08 02:48:00,48.6,46.4,30.04,NW,313,0.0,0.0,92,0.00,,,0.00,0,WeatherCatV1.21B27,2013-09-08 01:48:00,
2013-09-08 02:53:00,48.5,46.6,30.04,NW,313,0.0,1.0,93,0.00,,,0.00,0,WeatherCatV1.21B27,2013-09-08 01:53:00,
2013-09-08 02:58:00,48.5,46.6,30.04,NW,313,0.0,0.0,93,0.00,,,0.00,0,WeatherCatV1.21B27,2013-09-08 01:58:00,
2013-09-08 03:03:00,48.5,46.6,30.05,NW,313,0.0,1.0,93,0.00,,,0.00,0,WeatherCatV1.21B27,2013-09-08 02:03:00,
2013-09-08 03:08:00,48.6,46.7,30.04,NW,313,0.0,0.0,93,0.00,,,0.00,0,WeatherCatV1.21B27,2013-09-08 02:08:00,
2013-09-08 03:13:00,48.6,46.7,30.04,NW,313,0.0,0.0,93,0.00,,,0.00,0,WeatherCatV1.21B27,2013-09-08 02:13:00,
2013-09-08 03:18:00,48.7,46.8,30.04,NW,313,0.0,2.0,93,0.00,,,0.00,0,WeatherCatV1.21B27,2013-09-08 02:18:00,
2013-09-08 03:23:00,48.7,46.8,30.04,NW,313,0.0,1.0,93,0.00,,,0.00,0,WeatherCatV1.21B27,2013-09-08 02:23:00,
2013-09-08 03:28:00,48.7,46.8,30.04,NW,313,0.0,1.0,93,0.00,,,0.00,0,WeatherCatV1.21B27,2013-09-08 02:28:00,
2013-09-08 03:33:00,48.6,46.7,30.04,NW,313,0.0,0.0,93,0.00,,,0.00,0,WeatherCatV1.21B27,2013-09-08 02:33:00,
2013-09-08 03:38:00,48.5,46.6,30.04,NW,313,0.0,0.0,93,0.00,,,0.00,0,WeatherCatV1.21B27,2013-09-08 02:38:00,
2013-09-08 03:43:00,48.5,46.6,30.04,NW,313,0.0,0.0,93,0.00,,,0.00,0,WeatherCatV1.21B27,2013-09-08 02:43:00,
2013-09-08 03:48:00,48.6,46.7,30.05,NW,313,0.0,0.0,93,0.00,,,0.00,0,WeatherCatV1.21B27,2013-09-08 02:48:00,
2013-09-08 03:53:00,48.7,46.8,30.05,NW,313,0.0,0.0,93,0.00,,,0.00,0,WeatherCatV1.21B27,2013-09-08 02:53:00,
2013-09-08 03:58:00,48.8,46.9,30.05,NW,313,0.0,0.0,93,0.00,,,0.00,0,WeatherCatV1.21B27,2013-09-08 02:58:00,
2013-09-08 04:03:00,48.9,47.2,30.05,NW,313,0.0,0.0,94,0.00,,,0.00,0,WeatherCatV1.21B27,2013-09-08 03:03:00,
2013-09-08 04:08:00,49.0,47.3,30.05,NW,313,0.0,0.0,94,0.00,,,0.00,0,WeatherCatV1.21B27,2013-09-08 03:08:00,
2013-09-08 04:13:00,49.1,47.5,30.04,NW,313,0.0,0.0,94,0.00,,,0.00,0,WeatherCatV1.21B27,2013-09-08 03:13:00,
2013-09-08 04:18:00,49.0,47.1,30.04,NW,313,0.0,0.0,93,0.00,,,0.00,0,WeatherCatV1.21B27,2013-09-08 03:18:00,
2013-09-08 04:23:00,48.9,47.0,30.05,NW,313,0.0,0.0,93,0.00,,,0.00,0,WeatherCatV1.21B27,2013-09-08 03:23:00,
2013-09-08 04:28:00,48.8,46.9,30.05,NW,313,0.0,0.0,93,0.00,,,0.00,0,WeatherCatV1.21B27,2013-09-08 03:28:00,
2013-09-08 04:33:00,48.7,46.8,30.05,NW,313,0.0,0.0,93,0.00,,,0.00,0,WeatherCatV1.21B27,2013-09-08 03:33:00,
2013-09-08 04:38:00,48.8,46.9,30.05,NW,313,0.0,1.0,93,0.00,,,0.00,0,WeatherCatV1.21B27,2013-09-08 03:38:00,
2013-09-08 04:43:00,48.9,47.0,30.04,NW,313,0.0,1.0,93,0.00,,,0.00,0,WeatherCatV1.21B27,2013-09-08 03:43:00,
2013-09-08 04:48:00,49.0,47.3,30.05,NW,313,0.0,0.0,94,0.00,,,0.00,0,WeatherCatV1.21B27,2013-09-08 03:48:00,
2013-09-08 04:53:00,48.9,47.2,30.05,NW,313,0.0,0.0,94,0.00,,,0.00,0,WeatherCatV1.21B27,2013-09-08 03:53:00,
2013-09-08 04:58:00,48.9,47.0,30.05,NW,313,0.0,1.0,93,0.00,,,0.00,0,WeatherCatV1.21B27,2013-09-08 03:58:00,
2013-09-08 05:01:00,48.9,47.2,30.05,NW,313,0.0,1.0,94,0.00,,,0.00,0,WeatherCatV1.21B27,2013-09-08 04:01:00,
2013-09-08 05:02:00,48.9,47.2,30.05,NW,313,0.0,1.0,94,0.00,,,0.00,0,WeatherCatV1.21B27,2013-09-08 04:02:00,
2013-09-08 05:07:00,49.0,47.3,30.05,NW,313,0.0,0.0,94,0.00,,,0.00,0,WeatherCatV1.21B27,2013-09-08 04:07:00,
2013-09-08 05:12:00,49.0,47.1,30.05,NW,313,0.0,0.0,93,0.00,,,0.00,0,WeatherCatV1.21B27,2013-09-08 04:12:00,
2013-09-08 05:17:00,48.9,47.0,30.05,NW,313,0.0,0.0,93,0.00,,,0.00,0,WeatherCatV1.21B27,2013-09-08 04:17:00,
2013-09-08 05:22:00,48.8,46.9,30.05,NW,313,0.0,0.0,93,0.00,,,0.00,0,WeatherCatV1.21B27,2013-09-08 04:22:00,
2013-09-08 05:27:00,48.9,47.2,30.05,NW,313,0.0,0.0,94,0.00,,,0.00,0,WeatherCatV1.21B27,2013-09-08 04:27:00,
2013-09-08 05:32:00,48.9,47.2,30.04,NW,313,0.0,0.0,94,0.00,,,0.00,0,WeatherCatV1.21B27,2013-09-08 04:32:00,
2013-09-08 05:37:00,48.8,46.9,30.05,NW,313,0.0,0.0,93,0.00,,,0.00,0,WeatherCatV1.21B27,2013-09-08 04:37:00,
2013-09-08 05:42:00,48.7,46.8,30.04,NW,313,0.0,0.0,93,0.00,,,0.00,0,WeatherCatV1.21B27,2013-09-08 04:42:00,
2013-09-08 05:47:00,48.6,46.7,30.04,NW,313,0.0,0.0,93,0.00,,,0.00,0,WeatherCatV1.21B27,2013-09-08 04:47:00,
2013-09-08 05:52:00,48.5,46.8,30.04,NW,313,0.0,1.0,94,0.00,,,0.00,0,WeatherCatV1.21B27,2013-09-08 04:52:00,
2013-09-08 05:57:00,48.4,46.5,30.05,NW,313,0.0,0.0,93,0.00,,,0.00,0,WeatherCatV1.21B27,2013-09-08 04:57:00,
2013-09-08 06:02:00,48.3,46.4,30.05,NW,313,0.0,0.0,93,0.00,,,0.00,0,WeatherCatV1.21B27,2013-09-08 05:02:00,
2013-09-08 06:07:00,48.3,46.7,30.05,NW,313,0.0,0.0,94,0.00,,,0.00,0,WeatherCatV1.21B27,2013-09-08 05:07:00,
2013-09-08 06:12:00,48.3,46.7,30.05,NW,313,0.0,0.0,94,0.00,,,0.00,0,WeatherCatV1.21B27,2013-09-08 05:12:00,
2013-09-08 06:17:00,48.2,46.5,30.05,NW,313,0.0,0.0,94,0.00,,,0.00,0,WeatherCatV1.21B27,2013-09-08 05:17:00,
2013-09-08 06:22:00,48.1,46.5,30.05,NW,313,0.0,0.0,94,0.00,,,0.00,0,WeatherCatV1.21B27,2013-09-08 05:22:00,
2013-09-08 06:27:00,48.2,46.5,30.05,NW,313,0.0,0.0,94,0.00,,,0.00,0,WeatherCatV1.21B27,2013-09-08 05:27:00,
2013-09-08 06:32:00,48.2,46.5,30.05,NW,313,0.0,0.0,94,0.00,,,0.00,0,WeatherCatV1.21B27,2013-09-08 05:32:00,
2013-09-08 06:37:00,48.1,46.5,30.05,NW,313,0.0,0.0,94,0.00,,,0.00,5,WeatherCatV1.21B27,2013-09-08 05:37:00,
2013-09-08 06:42:00,48.0,46.4,30.05,NW,313,0.0,0.0,94,0.00,,,0.00,7,WeatherCatV1.21B27,2013-09-08 05:42:00,
2013-09-08 06:47:00,48.1,46.5,30.05,NW,313,0.0,0.0,94,0.00,,,0.00,12,WeatherCatV1.21B27,2013-09-08 05:47:00,
2013-09-08 06:52:00,48.2,46.5,30.05,NW,313,0.0,0.0,94,0.00,,,0.00,16,WeatherCatV1.21B27,2013-09-08 05:52:00,
2013-09-08 06:57:00,48.3,46.7,30.05,NW,313,0.0,0.0,94,0.00,,,0.00,23,WeatherCatV1.21B27,2013-09-08 05:57:00,
2013-09-08 07:02:00,48.4,46.8,30.05,NW,313,0.0,0.0,94,0.00,,,0.00,33,WeatherCatV1.21B27,2013-09-08 06:02:00,
2013-09-08 07:07:00,48.6,47.0,30.05,NW,313,0.0,1.0,94,0.00,,,0.00,44,WeatherCatV1.21B27,2013-09-08 06:07:00,
2013-09-08 07:12:00,48.8,47.2,30.05,NW,313,0.0,1.0,94,0.00,,,0.00,53,WeatherCatV1.21B27,2013-09-08 06:12:00,
2013-09-08 07:17:00,48.9,47.2,30.05,NW,313,0.0,0.0,94,0.00,,,0.00,63,WeatherCatV1.21B27,2013-09-08 06:17:00,
2013-09-08 07:22:00,49.1,47.5,30.05,NW,313,1.0,1.0,94,0.00,,,0.00,77,WeatherCatV1.21B27,2013-09-08 06:22:00,
2013-09-08 07:27:00,49.1,47.5,30.05,NW,313,0.0,1.0,94,0.00,,,0.00,86,WeatherCatV1.21B27,2013-09-08 06:27:00,
2013-09-08 07:32:00,49.3,47.7,30.05,NW,313,0.0,1.0,94,0.00,,,0.00,100,WeatherCatV1.21B27,2013-09-08 06:32:00,
2013-09-08 07:37:00,49.4,47.8,30.06,NW,313,1.0,1.0,94,0.00,,,0.00,113,WeatherCatV1.21B27,2013-09-08 06:37:00,
2013-09-08 07:42:00,49.6,47.9,30.06,NW,313,0.0,0.0,94,0.00,,,0.01,127,WeatherCatV1.21B27,2013-09-08 06:42:00,
2013-09-08 07:47:00,49.9,48.2,30.06,NW,313,0.0,1.0,94,0.00,,,0.01,139,WeatherCatV1.21B27,2013-09-08 06:47:00,
2013-09-08 07:52:00,50.1,48.2,30.06,NW,313,0.0,1.0,93,0.00,,,0.01,153,WeatherCatV1.21B27,2013-09-08 06:52:00,
2013-09-08 07:57:00,50.3,48.3,30.06,NW,313,0.0,0.0,93,0.00,,,0.01,169,WeatherCatV1.21B27,2013-09-08 06:57:00,
2013-09-08 08:02:00,50.6,48.7,30.06,NW,313,0.0,1.0,93,0.00,,,0.01,181,WeatherCatV1.21B27,2013-09-08 07:02:00,
2013-09-08 08:07:00,50.9,49.0,30.06,NW,313,0.0,1.0,93,0.00,,,0.01,197,WeatherCatV1.21B27,2013-09-08 07:07:00,
2013-09-08 08:12:00,51.2,49.0,30.06,NW,313,2.0,2.0,92,0.00,,,0.01,207,WeatherCatV1.21B27,2013-09-08 07:12:00,
2013-09-08 08:17:00,51.5,49.2,30.06,NW,313,0.0,1.0,92,0.00,,,0.01,225,WeatherCatV1.21B27,2013-09-08 07:17:00,
2013-09-08 08:22:00,51.9,49.3,30.06,NW,313,0.0,0.0,91,0.00,,,0.01,239,WeatherCatV1.21B27,2013-09-08 07:22:00,
2013-09-08 08:27:00,52.4,49.8,30.06,NW,313,0.0,0.0,91,0.00,,,0.01,255,WeatherCatV1.21B27,2013-09-08 07:27:00,
2013-09-08 08:32:00,52.8,50.0,30.06,NW,313,0.0,3.0,90,0.00,,,0.01,272,WeatherCatV1.21B27,2013-09-08 07:32:00,
2013-09-08 08:37:00,53.2,50.0,30.06,NW,313,0.0,1.0,89,0.00,,,0.01,290,WeatherCatV1.21B27,2013-09-08 07:37:00,
2013-09-08 08:42:00,53.5,50.0,30.06,NW,313,1.0,4.0,88,0.00,,,0.01,308,WeatherCatV1.21B27,2013-09-08 07:42:00,
2013-09-08 08:47:00,53.9,50.1,30.06,NW,313,1.0,3.0,87,0.00,,,0.01,325,WeatherCatV1.21B27,2013-09-08 07:47:00,
2013-09-08 08:52:00,54.4,50.3,30.06,NW,313,0.0,3.0,86,0.00,,,0.01,316,WeatherCatV1.21B27,2013-09-08 07:52:00,
2013-09-08 08:57:00,54.6,50.2,30.06,WNW,293,1.0,2.0,85,0.00,,,0.01,346,WeatherCatV1.21B27,2013-09-08 07:57:00,
2013-09-08 09:02:00,54.7,50.0,30.06,WNW,294,1.0,1.0,84,0.00,,,0.01,336,WeatherCatV1.21B27,2013-09-08 08:02:00,
2013-09-08 09:07:00,55.0,50.2,30.06,WNW,294,1.0,3.0,84,0.00,,,0.01,397,WeatherCatV1.21B27,2013-09-08 08:07:00,
2013-09-08 09:12:00,55.7,50.3,30.06,WNW,294,0.0,2.0,82,0.00,,,0.01,422,WeatherCatV1.21B27,2013-09-08 08:12:00,
2013-09-08 09:17:00,56.0,49.9,30.05,WNW,294,2.0,3.0,80,0.00,,,0.01,413,WeatherCatV1.21B27,2013-09-08 08:17:00,
2013-09-08 09:22:00,56.2,49.8,30.06,WNW,294,0.0,1.0,79,0.00,,,0.01,408,WeatherCatV1.21B27,2013-09-08 08:22:00,
2013-09-08 09:27:00,56.6,50.2,30.05,WNW,294,1.0,1.0,79,0.00,,,0.01,422,WeatherCatV1.21B27,2013-09-08 08:27:00,
2013-09-08 09:32:00,57.3,50.2,30.05,NW,307,1.0,3.0,77,0.00,,,0.01,431,WeatherCatV1.21B27,2013-09-08 08:32:00,
2013-09-08 09:37:00,57.5,49.6,30.06,NW,319,0.0,5.0,75,0.00,,,0.01,446,WeatherCatV1.21B27,2013-09-08 08:37:00,
2013-09-08 09:42:00,58.1,49.8,30.06,NNW,343,1.0,4.0,74,0.00,,,0.01,459,WeatherCatV1.21B27,2013-09-08 08:42:00,
2013-09-08 09:47:00,58.6,50.0,30.06,NW,308,2.0,3.0,73,0.00,,,0.01,466,WeatherCatV1.21B27,2013-09-08 08:47:00,
2013-09-08 09:52:00,58.6,49.2,30.06,NW,322,2.0,5.0,71,0.00,,,0.01,487,WeatherCatV1.21B27,2013-09-08 08:52:00,
2013-09-08 09:57:00,58.1,49.1,30.06,WNW,288,0.0,5.0,72,0.00,,,0.01,515,WeatherCatV1.21B27,2013-09-08 08:57:00,
2013-09-08 10:02:00,58.4,49.4,30.06,NW,305,0.0,1.0,72,0.00,,,0.01,517,WeatherCatV1.21B27,2013-09-08 09:02:00,
2013-09-08 10:07:00,58.7,48.9,30.06,NW,309,1.0,4.0,70,0.00,,,0.01,596,WeatherCatV1.21B27,2013-09-08 09:07:00,
2013-09-08 10:12:00,59.3,49.1,30.06,NW,321,0.0,2.0,69,0.00,,,0.01,624,WeatherCatV1.21B27,2013-09-08 09:12:00,
2013-09-08 10:17:00,59.5,48.5,30.06,NW,317,1.0,6.0,67,0.00,,,0.01,612,WeatherCatV1.21B27,2013-09-08 09:17:00,
2013-09-08 10:22:00,60.0,49.0,30.06,WNW,299,3.0,5.0,67,0.00,,,0.01,624,WeatherCatV1.21B27,2013-09-08 09:22:00,
2013-09-08 10:27:00,59.6,48.2,30.06,WNW,298,2.0,6.0,66,0.00,,,0.01,156,WeatherCatV1.21B27,2013-09-08 09:27:00,
2013-09-08 10:32:00,59.0,48.1,30.06,NW,309,3.0,4.0,67,0.00,,,0.01,183,WeatherCatV1.21B27,2013-09-08 09:32:00,
2013-09-08 10:37:00,58.5,48.0,30.06,NW,306,3.0,3.0,68,0.00,,,0.01,255,WeatherCatV1.21B27,2013-09-08 09:37:00,
2013-09-08 10:42:00,58.7,48.2,30.05,NW,313,3.0,5.0,68,0.00,,,0.01,817,WeatherCatV1.21B27,2013-09-08 09:42:00,
2013-09-08 10:47:00,59.9,48.1,30.05,NW,311,5.0,6.0,65,0.00,,,0.01,788,WeatherCatV1.21B27,2013-09-08 09:47:00,
2013-09-08 10:52:00,60.2,48.0,30.05,NW,321,4.0,8.0,64,0.00,,,0.01,206,WeatherCatV1.21B27,2013-09-08 09:52:00,
2013-09-08 10:57:00,59.6,47.8,30.05,WNW,303,4.0,6.0,65,0.00,,,0.01,192,WeatherCatV1.21B27,2013-09-08 09:57:00,
2013-09-08 11:02:00,59.1,47.8,30.05,West,277,4.0,4.0,66,0.00,,,0.01,163,WeatherCatV1.21B27,2013-09-08 10:02:00,
2013-09-08 11:07:00,59.6,47.8,30.05,NW,322,2.0,6.0,65,0.00,,,0.01,633,WeatherCatV1.21B27,2013-09-08 10:07:00,
2013-09-08 11:12:00,60.4,48.6,30.05,NW,325,2.0,3.0,65,0.00,,,0.01,738,WeatherCatV1.21B27,2013-09-08 10:12:00,
2013-09-08 11:17:00,61.0,47.9,30.05,NW,309,3.0,6.0,62,0.00,,,0.01,214,WeatherCatV1.21B27,2013-09-08 10:17:00,
2013-09-08 11:22:00,60.1,47.5,30.05,NW,317,6.0,6.0,63,0.00,,,0.01,188,WeatherCatV1.21B27,2013-09-08 10:22:00,
2013-09-08 11:27:00,59.4,47.6,30.05,NW,321,1.0,6.0,65,0.00,,,0.01,223,WeatherCatV1.21B27,2013-09-08 10:27:00,
2013-09-08 11:32:00,59.0,47.7,30.05,WNW,303,3.0,5.0,66,0.00,,,0.01,193,WeatherCatV1.21B27,2013-09-08 10:32:00,
2013-09-08 11:37:00,59.2,47.8,30.05,WNW,302,3.0,3.0,66,0.00,,,0.01,185,WeatherCatV1.21B27,2013-09-08 10:37:00,
2013-09-08 11:42:00,59.2,48.2,30.05,WNW,302,1.0,3.0,67,0.00,,,0.01,195,WeatherCatV1.21B27,2013-09-08 10:42:00,
2013-09-08 11:47:00,59.4,48.0,30.05,NW,304,2.0,6.0,66,0.00,,,0.01,318,WeatherCatV1.21B27,2013-09-08 10:47:00,
2013-09-08 11:52:00,60.0,48.2,30.05,WNW,303,4.0,6.0,65,0.00,,,0.01,181,WeatherCatV1.21B27,2013-09-08 10:52:00,
2013-09-08 11:57:00,59.8,47.6,30.05,NW,324,0.0,1.0,64,0.00,,,0.01,155,WeatherCatV1.21B27,2013-09-08 10:57:00,
2013-09-08 12:02:00,59.6,48.2,30.05,NW,307,2.0,4.0,66,0.00,,,0.01,183,WeatherCatV1.21B27,2013-09-08 11:02:00,
2013-09-08 12:07:00,59.6,48.6,30.05,NW,307,2.0,2.0,67,0.00,,,0.01,207,WeatherCatV1.21B27,2013-09-08 11:07:00,
2013-09-08 12:12:00,59.8,47.2,30.04,WNW,302,3.0,3.0,63,0.00,,,0.01,211,WeatherCatV1.21B27,2013-09-08 11:12:00,
2013-09-08 12:17:00,60.0,46.9,30.04,WNW,290,1.0,3.0,62,0.00,,,0.01,169,WeatherCatV1.21B27,2013-09-08 11:17:00,
2013-09-08 12:22:00,60.1,47.5,30.04,WNW,284,2.0,3.0,63,0.00,,,0.01,171,WeatherCatV1.21B27,2013-09-08 11:22:00,
2013-09-08 12:27:00,60.0,47.4,30.04,NW,317,3.0,8.0,63,0.00,,,0.01,169,WeatherCatV1.21B27,2013-09-08 11:27:00,
2013-09-08 12:32:00,59.7,47.9,30.04,NW,316,2.0,3.0,65,0.00,,,0.01,155,WeatherCatV1.21B27,2013-09-08 11:32:00,
2013-09-08 12:37:00,59.6,47.8,30.03,WNW,300,2.0,6.0,65,0.00,,,0.01,144,WeatherCatV1.21B27,2013-09-08 11:37:00,
2013-09-08 12:42:00,59.4,47.6,30.04,NW,304,0.0,1.0,65,0.00,,,0.01,62,WeatherCatV1.21B27,2013-09-08 11:42:00,
2013-09-08 12:47:00,59.1,47.8,30.04,WNW,296,6.0,9.0,66,0.00,,,0.01,28,WeatherCatV1.21B27,2013-09-08 11:47:00,
2013-09-08 12:52:00,57.0,48.1,30.05,NW,306,2.0,6.0,72,0.82,,,0.03,40,WeatherCatV1.21B27,2013-09-08 11:52:00,
2013-09-08 12:57:00,54.5,48.1,30.05,NW,319,4.0,4.0,79,0.22,,,0.06,42,WeatherCatV1.21B27,2013-09-08 11:57:00,
2013-09-08 13:02:00,53.6,48.9,30.06,NW,306,1.0,2.0,84,0.25,,,0.08,39,WeatherCatV1.21B27,2013-09-08 12:02:00,
2013-09-08 13:07:00,53.3,49.8,30.06,NNW,339,6.0,7.0,88,0.13,,,0.09,30,WeatherCatV1.21B27,2013-09-08 12:07:00,
2013-09-08 13:12:00,53.1,49.9,30.07,NNW,340,5.0,6.0,89,0.39,,,0.11,44,WeatherCatV1.21B27,2013-09-08 12:12:00,
2013-09-08 13:17:00,52.9,50.0,30.06,West,277,4.0,7.0,90,0.23,,,0.13,63,WeatherCatV1.21B27,2013-09-08 12:17:00,
2013-09-08 13:22:00,52.8,50.2,30.06,WNW,303,0.0,3.0,91,0.14,,,0.14,98,WeatherCatV1.21B27,2013-09-08 12:22:00,
2013-09-08 13:27:00,52.6,50.0,30.06,WNW,302,0.0,6.0,91,0.11,,,0.15,134,WeatherCatV1.21B27,2013-09-08 12:27:00,
2013-09-08 13:32:00,52.6,50.3,30.06,WNW,294,0.0,4.0,92,0.08,,,0.16,172,WeatherCatV1.21B27,2013-09-08 12:32:00,
2013-09-08 13:37:00,52.6,50.3,30.06,West,268,0.0,3.0,92,0.06,,,0.16,186,WeatherCatV1.21B27,2013-09-08 12:37:00,
2013-09-08 13:42:00,52.6,50.3,30.05,West,268,1.0,1.0,92,0.03,,,0.16,265,WeatherCatV1.21B27,2013-09-08 12:42:00,
2013-09-08 13:47:00,53.0,51.0,30.05,SE,133,3.0,4.0,93,0.00,,,0.16,339,WeatherCatV1.21B27,2013-09-08 12:47:00,
2013-09-08 13:52:00,53.6,51.6,30.05,SE,132,0.0,1.0,93,0.00,,,0.16,315,WeatherCatV1.21B27,2013-09-08 12:52:00,
2013-09-08 13:57:00,54.0,52.0,30.05,NNW,330,2.0,2.0,93,0.00,,,0.16,327,WeatherCatV1.21B27,2013-09-08 12:57:00,
2013-09-08 14:02:00,54.4,52.1,30.05,WSW,249,0.0,1.0,92,0.00,,,0.16,338,WeatherCatV1.21B27,2013-09-08 13:02:00,
2013-09-08 14:07:00,54.7,52.4,30.05,WNW,299,0.0,0.0,92,0.00,,,0.16,336,WeatherCatV1.21B27,2013-09-08 13:07:00,
2013-09-08 14:12:00,56.0,53.4,30.05,SE,138,1.0,6.0,91,0.00,,,0.16,457,WeatherCatV1.21B27,2013-09-08 13:12:00,
2013-09-08 14:17:00,56.6,53.7,30.05,NNW,328,0.0,2.0,90,0.00,,,0.16,427,WeatherCatV1.21B27,2013-09-08 13:17:00,
2013-09-08 14:22:00,56.9,53.4,30.05,SE,132,3.0,3.0,88,0.00,,,0.16,229,WeatherCatV1.21B27,2013-09-08 13:22:00,
2013-09-08 14:27:00,56.8,53.3,30.05,SE,125,0.0,2.0,88,0.00,,,0.16,237,WeatherCatV1.21B27,2013-09-08 13:27:00,
2013-09-08 14:32:00,56.6,52.8,30.04,SE,141,1.0,5.0,87,0.00,,,0.16,160,WeatherCatV1.21B27,2013-09-08 13:32:00,
2013-09-08 14:37:00,56.3,52.2,30.04,NNW,331,1.0,3.0,86,0.00,,,0.16,132,WeatherCatV1.21B27,2013-09-08 13:37:00,
2013-09-08 14:42:00,56.2,52.4,30.04,NW,311,1.0,3.0,87,0.00,,,0.16,111,WeatherCatV1.21B27,2013-09-08 13:42:00,
2013-09-08 14:47:00,56.1,52.0,30.04,NW,322,0.0,4.0,86,0.00,,,0.16,97,WeatherCatV1.21B27,2013-09-08 13:47:00,
2013-09-08 14:52:00,56.1,52.0,30.05,WNW,296,1.0,2.0,86,0.00,,,0.16,113,WeatherCatV1.21B27,2013-09-08 13:52:00,
2013-09-08 14:57:00,55.9,51.8,30.05,WNW,300,3.0,4.0,86,0.00,,,0.16,246,WeatherCatV1.21B27,2013-09-08 13:57:00,
2013-09-08 15:02:00,56.0,52.2,30.05,NW,324,2.0,6.0,87,0.00,,,0.16,278,WeatherCatV1.21B27,2013-09-08 14:02:00,
2013-09-08 15:07:00,56.2,52.1,30.05,WNW,292,0.0,6.0,86,0.00,,,0.16,271,WeatherCatV1.21B27,2013-09-08 14:07:00,
2013-09-08 15:12:00,56.6,52.5,30.05,NW,319,3.0,5.0,86,0.00,,,0.16,258,WeatherCatV1.21B27,2013-09-08 14:12:00,
2013-09-08 15:17:00,56.8,52.3,30.05,NW,307,6.0,6.0,85,0.00,,,0.16,230,WeatherCatV1.21B27,2013-09-08 14:17:00,
2013-09-08 15:22:00,56.9,52.1,30.04,WNW,287,0.0,6.0,84,0.00,,,0.16,241,WeatherCatV1.21B27,2013-09-08 14:22:00,
2013-09-08 15:27:00,57.3,52.8,30.05,NW,315,5.0,5.0,85,0.00,,,0.16,302,WeatherCatV1.21B27,2013-09-08 14:27:00,
2013-09-08 15:32:00,57.4,51.6,30.05,North,355,1.0,6.0,81,0.00,,,0.16,265,WeatherCatV1.21B27,2013-09-08 14:32:00,
2013-09-08 15:37:00,57.7,51.6,30.04,NW,314,5.0,6.0,80,0.00,,,0.16,272,WeatherCatV1.21B27,2013-09-08 14:37:00,
2013-09-08 15:42:00,57.8,50.6,30.04,NW,318,4.0,7.0,77,0.00,,,0.16,290,WeatherCatV1.21B27,2013-09-08 14:42:00,
2013-09-08 15:47:00,57.8,50.6,30.04,WSW,244,5.0,7.0,77,0.00,,,0.16,278,WeatherCatV1.21B27,2013-09-08 14:47:00,
2013-09-08 15:52:00,57.9,49.7,30.04,NW,322,1.0,7.0,74,0.00,,,0.16,185,WeatherCatV1.21B27,2013-09-08 14:52:00,
2013-09-08 15:57:00,57.8,49.2,30.04,West,272,6.0,7.0,73,0.00,,,0.16,135,WeatherCatV1.21B27,2013-09-08 14:57:00,
2013-09-08 16:02:00,57.6,48.6,30.04,WNW,300,4.0,6.0,72,0.00,,,0.16,116,WeatherCatV1.21B27,2013-09-08 15:02:00,
2013-09-08 16:07:00,57.1,47.8,30.05,WNW,294,3.0,6.0,71,0.00,,,0.16,121,WeatherCatV1.21B27,2013-09-08 15:07:00,
2013-09-08 16:12:00,56.5,47.6,30.04,SW,227,6.0,8.0,72,0.00,,,0.16,128,WeatherCatV1.21B27,2013-09-08 15:12:00,
2013-09-08 16:17:00,56.3,47.8,30.04,West,271,2.0,5.0,73,0.00,,,0.16,160,WeatherCatV1.21B27,2013-09-08 15:17:00,
2013-09-08 16:22:00,56.6,48.0,30.04,NW,307,1.0,6.0,73,0.00,,,0.16,241,WeatherCatV1.21B27,2013-09-08 15:22:00,
2013-09-08 16:27:00,58.8,50.2,30.04,SSE,154,4.0,7.0,73,0.00,,,0.16,603,WeatherCatV1.21B27,2013-09-08 15:27:00,
2013-09-08 16:32:00,60.1,50.7,30.04,WNW,286,2.0,5.0,71,0.00,,,0.16,631,WeatherCatV1.21B27,2013-09-08 15:32:00,
2013-09-08 16:37:00,59.1,49.3,30.04,WNW,287,2.0,8.0,70,0.00,,,0.16,186,WeatherCatV1.21B27,2013-09-08 15:37:00,
2013-09-08 16:42:00,58.2,49.2,30.04,WNW,292,1.0,3.0,72,0.00,,,0.16,165,WeatherCatV1.21B27,2013-09-08 15:42:00,
2013-09-08 16:47:00,57.5,48.9,30.04,NW,306,7.0,8.0,73,0.00,,,0.16,185,WeatherCatV1.21B27,2013-09-08 15:47:00,
2013-09-08 16:52:00,57.8,50.3,30.04,WNW,296,4.0,4.0,76,0.00,,,0.16,533,WeatherCatV1.21B27,2013-09-08 15:52:00,
2013-09-08 16:57:00,58.8,49.8,30.04,WNW,294,6.0,9.0,72,0.00,,,0.16,425,WeatherCatV1.21B27,2013-09-08 15:57:00,
2013-09-08 17:02:00,58.5,49.1,30.04,NW,314,1.0,9.0,71,0.00,,,0.16,146,WeatherCatV1.21B27,2013-09-08 16:02:00,
2013-09-08 17:07:00,57.7,49.1,30.04,NW,319,3.0,5.0,73,0.00,,,0.16,250,WeatherCatV1.21B27,2013-09-08 16:07:00,
2013-09-08 17:12:00,57.3,48.3,30.04,NW,316,3.0,6.0,72,0.00,,,0.16,111,WeatherCatV1.21B27,2013-09-08 16:12:00,
2013-09-08 17:17:00,57.0,47.7,30.04,WNW,299,2.0,5.0,71,0.00,,,0.16,97,WeatherCatV1.21B27,2013-09-08 16:17:00,
2013-09-08 17:22:00,56.7,48.1,30.04,WNW,302,0.0,2.0,73,0.00,,,0.16,123,WeatherCatV1.21B27,2013-09-08 16:22:00,
2013-09-08 17:27:00,56.3,49.5,30.04,NW,304,2.0,2.0,78,0.00,,,0.17,188,WeatherCatV1.21B27,2013-09-08 16:27:00,
2013-09-08 17:32:00,56.5,50.4,30.03,NW,304,1.0,1.0,80,0.00,,,0.17,121,WeatherCatV1.21B27,2013-09-08 16:32:00,
2013-09-08 17:37:00,56.3,49.9,30.03,NW,304,1.0,4.0,79,0.00,,,0.17,65,WeatherCatV1.21B27,2013-09-08 16:37:00,
2013-09-08 17:42:00,55.9,50.2,30.03,NW,304,3.0,3.0,81,0.00,,,0.17,67,WeatherCatV1.21B27,2013-09-08 16:42:00,
2013-09-08 17:47:00,55.7,50.6,30.04,NW,305,0.0,1.0,83,0.00,,,0.17,274,WeatherCatV1.21B27,2013-09-08 16:47:00,
2013-09-08 17:52:00,56.5,52.0,30.04,WNW,291,0.0,2.0,85,0.00,,,0.17,107,WeatherCatV1.21B27,2013-09-08 16:52:00,
2013-09-08 17:57:00,56.5,51.4,30.03,ESE,120,3.0,4.0,83,0.00,,,0.17,95,WeatherCatV1.21B27,2013-09-08 16:57:00,
2013-09-08 18:02:00,56.6,51.8,30.03,NW,317,0.0,2.0,84,0.00,,,0.17,221,WeatherCatV1.21B27,2013-09-08 17:02:00,
2013-09-08 18:07:00,56.8,51.7,30.03,NW,323,2.0,5.0,83,0.00,,,0.17,172,WeatherCatV1.21B27,2013-09-08 17:07:00,
2013-09-08 18:12:00,56.6,51.5,30.03,NW,319,3.0,5.0,83,0.00,,,0.17,104,WeatherCatV1.21B27,2013-09-08 17:12:00,
2013-09-08 18:17:00,56.3,51.2,30.03,SE,140,0.0,5.0,83,0.00,,,0.17,40,WeatherCatV1.21B27,2013-09-08 17:17:00,
2013-09-08 18:22:00,56.0,51.2,30.03,SSE,152,1.0,4.0,84,0.00,,,0.17,37,WeatherCatV1.21B27,2013-09-08 17:22:00,
2013-09-08 18:27:00,55.6,50.8,30.03,NW,313,2.0,3.0,84,0.00,,,0.17,42,WeatherCatV1.21B27,2013-09-08 17:27:00,
2013-09-08 18:32:00,55.2,50.8,30.03,NW,309,2.0,2.0,85,0.00,,,0.17,47,WeatherCatV1.21B27,2013-09-08 17:32:00,
2013-09-08 18:37:00,55.0,50.6,30.03,West,276,1.0,3.0,85,0.00,,,0.17,44,WeatherCatV1.21B27,2013-09-08 17:37:00,
2013-09-08 18:42:00,54.9,50.5,30.03,NW,322,0.0,3.0,85,0.00,,,0.17,35,WeatherCatV1.21B27,2013-09-08 17:42:00,
2013-09-08 18:47:00,54.8,50.4,30.03,WNW,289,1.0,2.0,85,0.00,,,0.17,21,WeatherCatV1.21B27,2013-09-08 17:47:00,
2013-09-08 18:52:00,54.7,50.6,30.03,SE,135,0.0,4.0,86,0.00,,,0.17,14,WeatherCatV1.21B27,2013-09-08 17:52:00,
2013-09-08 18:57:00,54.6,50.5,30.03,SE,146,0.0,1.0,86,0.00,,,0.17,12,WeatherCatV1.21B27,2013-09-08 17:57:00,
2013-09-08 19:02:00,54.5,50.4,30.03,WNW,296,1.0,4.0,86,0.00,,,0.17,11,WeatherCatV1.21B27,2013-09-08 18:02:00,
2013-09-08 19:07:00,54.4,50.6,30.03,WNW,291,1.0,4.0,87,0.00,,,0.17,11,WeatherCatV1.21B27,2013-09-08 18:07:00,
2013-09-08 19:12:00,54.3,50.5,30.03,WNW,299,1.0,3.0,87,0.00,,,0.17,9,WeatherCatV1.21B27,2013-09-08 18:12:00,
2013-09-08 19:17:00,54.2,50.4,30.03,WNW,299,1.0,4.0,87,0.00,,,0.17,7,WeatherCatV1.21B27,2013-09-08 18:17:00,
2013-09-08 19:22:00,54.1,50.3,30.03,WNW,289,2.0,2.0,87,0.00,,,0.17,5,WeatherCatV1.21B27,2013-09-08 18:22:00,
2013-09-08 19:27:00,54.1,50.3,30.03,WNW,288,0.0,1.0,87,0.00,,,0.17,0,WeatherCatV1.21B27,2013-09-08 18:27:00,
2013-09-08 19:32:00,54.1,50.6,30.03,WNW,288,0.0,1.0,88,0.00,,,0.17,0,WeatherCatV1.21B27,2013-09-08 18:32:00,
2013-09-08 19:37:00,54.1,50.6,30.03,NW,304,4.0,4.0,88,0.00,,,0.17,0,WeatherCatV1.21B27,2013-09-08 18:37:00,
2013-09-08 19:42:00,54.1,50.6,30.03,NW,308,0.0,4.0,88,0.00,,,0.17,0,WeatherCatV1.21B27,2013-09-08 18:42:00,
2013-09-08 19:47:00,54.0,50.5,30.03,NW,308,0.0,2.0,88,0.00,,,0.17,0,WeatherCatV1.21B27,2013-09-08 18:47:00,
2013-09-08 19:52:00,53.9,50.4,30.03,WNW,296,1.0,4.0,88,0.00,,,0.17,0,WeatherCatV1.21B27,2013-09-08 18:52:00,
2013-09-08 19:57:00,53.8,50.3,30.04,NW,317,4.0,6.0,88,0.00,,,0.17,0,WeatherCatV1.21B27,2013-09-08 18:57:00,
2013-09-08 20:02:00,53.7,50.5,30.03,NW,317,0.0,3.0,89,0.00,,,0.17,0,WeatherCatV1.21B27,2013-09-08 19:02:00,
2013-09-08 20:07:00,53.7,50.5,30.04,NW,309,1.0,2.0,89,0.00,,,0.17,0,WeatherCatV1.21B27,2013-09-08 19:07:00,
2013-09-08 20:12:00,53.6,50.4,30.04,NNW,327,0.0,2.0,89,0.00,,,0.17,0,WeatherCatV1.21B27,2013-09-08 19:12:00,
2013-09-08 20:17:00,53.5,50.3,30.04,NNW,328,0.0,1.0,89,0.00,,,0.17,0,WeatherCatV1.21B27,2013-09-08 19:17:00,
2013-09-08 20:22:00,53.5,50.3,30.04,NNW,328,0.0,2.0,89,0.00,,,0.17,0,WeatherCatV1.21B27,2013-09-08 19:22:00,
2013-09-08 20:27:00,53.3,50.4,30.04,NNW,328,0.0,2.0,90,0.00,,,0.17,0,WeatherCatV1.21B27,2013-09-08 19:27:00,
2013-09-08 20:32:00,53.3,50.4,30.04,ESE,115,1.0,5.0,90,0.00,,,0.17,0,WeatherCatV1.21B27,2013-09-08 19:32:00,
2013-09-08 20:37:00,53.2,50.3,30.04,WNW,298,0.0,1.0,90,0.00,,,0.17,0,WeatherCatV1.21B27,2013-09-08 19:37:00,
2013-09-08 20:42:00,53.1,50.2,30.04,WNW,298,0.0,1.0,90,0.00,,,0.17,0,WeatherCatV1.21B27,2013-09-08 19:42:00,
2013-09-08 20:47:00,53.0,50.1,30.04,WNW,298,0.0,1.0,90,0.00,,,0.17,0,WeatherCatV1.21B27,2013-09-08 19:47:00,
2013-09-08 20:52:00,52.9,50.3,30.04,WNW,298,0.0,1.0,91,0.00,,,0.17,0,WeatherCatV1.21B27,2013-09-08 19:52:00,
2013-09-08 20:57:00,52.8,50.2,30.04,WNW,298,0.0,1.0,91,0.00,,,0.17,0,WeatherCatV1.21B27,2013-09-08 19:57:00,
2013-09-08 21:02:00,52.7,50.2,30.04,WNW,298,0.0,0.0,91,0.00,,,0.17,0,WeatherCatV1.21B27,2013-09-08 20:02:00,
2013-09-08 21:07:00,52.6,50.0,30.04,WNW,298,0.0,0.0,91,0.00,,,0.17,0,WeatherCatV1.21B27,2013-09-08 20:07:00,
2013-09-08 21:12:00,52.5,50.0,30.04,WNW,298,0.0,0.0,91,0.00,,,0.17,0,WeatherCatV1.21B27,2013-09-08 20:12:00,
2013-09-08 21:17:00,52.4,49.8,30.04,WNW,298,0.0,1.0,91,0.00,,,0.17,0,WeatherCatV1.21B27,2013-09-08 20:17:00,
2013-09-08 21:22:00,52.2,50.0,30.04,WNW,298,0.0,0.0,92,0.00,,,0.17,0,WeatherCatV1.21B27,2013-09-08 20:22:00,
2013-09-08 21:27:00,52.1,49.8,30.04,WNW,298,0.0,0.0,92,0.00,,,0.17,0,WeatherCatV1.21B27,2013-09-08 20:27:00,
2013-09-08 21:32:00,52.0,49.8,30.04,WNW,298,0.0,0.0,92,0.00,,,0.17,0,WeatherCatV1.21B27,2013-09-08 20:32:00,
2013-09-08 21:37:00,51.9,49.7,30.04,WNW,298,0.0,0.0,92,0.00,,,0.17,0,WeatherCatV1.21B27,2013-09-08 20:37:00,
2013-09-08 21:42:00,51.8,49.5,30.04,WNW,298,0.0,1.0,92,0.00,,,0.17,0,WeatherCatV1.21B27,2013-09-08 20:42:00,
2013-09-08 21:47:00,51.8,49.5,30.04,WNW,298,0.0,0.0,92,0.00,,,0.17,0,WeatherCatV1.21B27,2013-09-08 20:47:00,
2013-09-08 21:52:00,51.6,49.3,30.04,WNW,298,0.0,0.0,92,0.00,,,0.17,0,WeatherCatV1.21B27,2013-09-08 20:52:00,
2013-09-08 21:57:00,51.5,49.2,30.04,WNW,298,0.0,0.0,92,0.00,,,0.17,0,WeatherCatV1.21B27,2013-09-08 20:57:00,
2013-09-08 22:02:00,51.4,49.4,30.04,WNW,298,0.0,0.0,93,0.00,,,0.17,0,WeatherCatV1.21B27,2013-09-08 21:02:00,
2013-09-08 22:07:00,51.4,49.4,30.04,WNW,298,0.0,1.0,93,0.00,,,0.17,0,WeatherCatV1.21B27,2013-09-08 21:07:00,
2013-09-08 22:12:00,51.3,49.3,30.04,WNW,298,0.0,0.0,93,0.00,,,0.17,0,WeatherCatV1.21B27,2013-09-08 21:12:00,
2013-09-08 22:17:00,51.2,49.2,30.04,WNW,298,0.0,0.0,93,0.00,,,0.17,0,WeatherCatV1.21B27,2013-09-08 21:17:00,
2013-09-08 22:22:00,51.1,49.2,30.04,WNW,298,0.0,0.0,93,0.00,,,0.17,0,WeatherCatV1.21B27,2013-09-08 21:22:00,
2013-09-08 22:27:00,51.1,49.2,30.04,WNW,298,0.0,1.0,93,0.00,,,0.17,0,WeatherCatV1.21B27,2013-09-08 21:27:00,
2013-09-08 22:32:00,51.1,49.2,30.04,WNW,298,0.0,0.0,93,0.00,,,0.17,0,WeatherCatV1.21B27,2013-09-08 21:32:00,
2013-09-08 22:37:00,51.1,49.2,30.04,WNW,298,0.0,0.0,93,0.00,,,0.17,0,WeatherCatV1.21B27,2013-09-08 21:37:00,
2013-09-08 22:42:00,51.0,49.0,30.04,WNW,298,0.0,0.0,93,0.00,,,0.17,0,WeatherCatV1.21B27,2013-09-08 21:42:00,
2013-09-08 22:47:00,50.9,49.0,30.04,WNW,298,0.0,0.0,93,0.00,,,0.17,0,WeatherCatV1.21B27,2013-09-08 21:47:00,
2013-09-08 22:52:00,50.8,48.8,30.04,WNW,298,0.0,1.0,93,0.00,,,0.17,0,WeatherCatV1.21B27,2013-09-08 21:52:00,
2013-09-08 22:57:00,50.7,48.8,30.04,WNW,298,0.0,0.0,93,0.00,,,0.17,0,WeatherCatV1.21B27,2013-09-08 21:57:00,
2013-09-08 23:02:00,50.7,49.0,30.04,WNW,298,0.0,0.0,94,0.00,,,0.17,0,WeatherCatV1.21B27,2013-09-08 22:02:00,
2013-09-08 23:07:00,50.6,48.7,30.04,WNW,298,0.0,0.0,93,0.00,,,0.17,0,WeatherCatV1.21B27,2013-09-08 22:07:00,
2013-09-08 23:12:00,50.4,48.5,30.05,WNW,298,0.0,0.0,93,0.00,,,0.17,0,WeatherCatV1.21B27,2013-09-08 22:12:00,
2013-09-08 23:17:00,50.3,48.6,30.05,WNW,298,0.0,0.0,94,0.00,,,0.17,0,WeatherCatV1.21B27,2013-09-08 22:17:00,
2013-09-08 23:22:00,50.2,48.5,30.05,WNW,298,0.0,0.0,94,0.00,,,0.17,0,WeatherCatV1.21B27,2013-09-08 22:22:00,
2013-09-08 23:27:00,50.2,48.5,30.05,WNW,298,0.0,1.0,94,0.00,,,0.17,0,WeatherCatV1.21B27,2013-09-08 22:27:00,
2013-09-08 23:32:00,50.2,48.5,30.05,WNW,298,0.0,2.0,94,0.00,,,0.17,0,WeatherCatV1.21B27,2013-09-08 22:32:00,
2013-09-08 23:37:00,50.2,48.5,30.05,WNW,298,0.0,1.0,94,0.00,,,0.17,0,WeatherCatV1.21B27,2013-09-08 22:37:00,
2013-09-08 23:42:00,50.1,48.4,30.05,WNW,298,0.0,1.0,94,0.00,,,0.17,0,WeatherCatV1.21B27,2013-09-08 22:42:00,
2013-09-08 23:47:00,49.9,48.2,30.05,WNW,298,0.0,1.0,94,0.00,,,0.17,0,WeatherCatV1.21B27,2013-09-08 22:47:00,
2013-09-08 23:52:00,49.8,48.1,30.05,WNW,298,0.0,0.0,94,0.00,,,0.17,0,WeatherCatV1.21B27,2013-09-08 22:52:00,
2013-09-08 23:57:00,49.7,48.0,30.05,WNW,298,0.0,1.0,94,0.00,,,0.17,0,WeatherCatV1.21B27,2013-09-08 22:57:00,